sensor_id;sensor_type;location;lat;lon;timestamp;pressure;altitude;pressure_sealevel;temperature;humidity
77574;BME280;66710;48.868;9.080;2023-10-13T00:00:41;98087.41;;;17.29;87.16
77574;BME280;66710;48.868;9.080;2023-10-13T00:03:08;98080.59;;;17.26;87.85
77574;BME280;66710;48.868;9.080;2023-10-13T00:05:40;98082.97;;;17.19;88.74
77574;BME280;66710;48.868;9.080;2023-10-13T00:08:07;98081.47;;;17.13;89.04
77574;BME280;66710;48.868;9.080;2023-10-13T00:10:33;98074.66;;;17.10;88.23
77574;BME280;66710;48.868;9.080;2023-10-13T00:13:02;98071.38;;;17.08;86.62
77574;BME280;66710;48.868;9.080;2023-10-13T00:15:44;98067.81;;;17.08;84.54
77574;BME280;66710;48.868;9.080;2023-10-13T00:18:21;98073.81;;;17.10;84.95
77574;BME280;66710;48.868;9.080;2023-10-13T00:20:47;98069.78;;;17.07;84.88
77574;BME280;66710;48.868;9.080;2023-10-13T00:23:16;98066.84;;;17.03;85.62
77574;BME280;66710;48.868;9.080;2023-10-13T00:25:50;98067.56;;;16.95;87.43
77574;BME280;66710;48.868;9.080;2023-10-13T00:28:25;98073.06;;;16.95;86.26
77574;BME280;66710;48.868;9.080;2023-10-13T00:30:52;98074.72;;;16.96;87.06
77574;BME280;66710;48.868;9.080;2023-10-13T00:33:21;98067.19;;;16.88;88.45
77574;BME280;66710;48.868;9.080;2023-10-13T00:35:49;98064.34;;;16.79;88.76
77574;BME280;66710;48.868;9.080;2023-10-13T00:38:16;98059.59;;;16.71;90.03
77574;BME280;66710;48.868;9.080;2023-10-13T00:40:43;98066.22;;;16.70;93.28
77574;BME280;66710;48.868;9.080;2023-10-13T00:43:18;98065.47;;;16.56;97.56
77574;BME280;66710;48.868;9.080;2023-10-13T00:45:55;98063.75;;;16.46;97.86
77574;BME280;66710;48.868;9.080;2023-10-13T00:48:26;98067.84;;;16.48;89.16
77574;BME280;66710;48.868;9.080;2023-10-13T00:51:01;98066.50;;;16.46;87.31
77574;BME280;66710;48.868;9.080;2023-10-13T00:53:33;98056.34;;;16.69;81.38
77574;BME280;66710;48.868;9.080;2023-10-13T00:56:01;98056.34;;;16.69;81.00
77574;BME280;66710;48.868;9.080;2023-10-13T00:58:34;98067.28;;;16.83;79.07
77574;BME280;66710;48.868;9.080;2023-10-13T01:01:01;98062.97;;;16.68;80.56
77574;BME280;66710;48.868;9.080;2023-10-13T01:03:50;98064.78;;;16.73;78.96
77574;BME280;66710;48.868;9.080;2023-10-13T01:06:17;98067.16;;;16.65;79.27
77574;BME280;66710;48.868;9.080;2023-10-13T01:08:47;98063.22;;;16.58;79.75
77574;BME280;66710;48.868;9.080;2023-10-13T01:11:18;98062.63;;;16.47;82.10
77574;BME280;66710;48.868;9.080;2023-10-13T01:13:45;98057.34;;;16.37;82.67
77574;BME280;66710;48.868;9.080;2023-10-13T01:16:16;98061.03;;;16.32;81.74
77574;BME280;66710;48.868;9.080;2023-10-13T01:18:41;98063.19;;;16.21;83.63
77574;BME280;66710;48.868;9.080;2023-10-13T01:21:13;98050.06;;;16.18;82.30
77574;BME280;66710;48.868;9.080;2023-10-13T01:23:41;98041.50;;;16.20;81.52
77574;BME280;66710;48.868;9.080;2023-10-13T01:26:07;98046.47;;;16.32;80.37
77574;BME280;66710;48.868;9.080;2023-10-13T01:28:34;98046.78;;;16.30;80.28
77574;BME280;66710;48.868;9.080;2023-10-13T01:31:10;98035.59;;;16.26;80.38
77574;BME280;66710;48.868;9.080;2023-10-13T01:33:37;98033.63;;;16.27;79.25
77574;BME280;66710;48.868;9.080;2023-10-13T01:36:02;98033.03;;;16.30;77.77
77574;BME280;66710;48.868;9.080;2023-10-13T01:38:32;98037.31;;;16.36;77.87
77574;BME280;66710;48.868;9.080;2023-10-13T01:40:58;98040.47;;;16.66;73.48
77574;BME280;66710;48.868;9.080;2023-10-13T01:43:24;98037.97;;;16.78;71.39
77574;BME280;66710;48.868;9.080;2023-10-13T01:45:49;98030.47;;;16.70;72.32
77574;BME280;66710;48.868;9.080;2023-10-13T01:48:18;98029.53;;;16.52;73.81
77574;BME280;66710;48.868;9.080;2023-10-13T01:50:46;98027.50;;;16.44;74.28
77574;BME280;66710;48.868;9.080;2023-10-13T01:53:14;98027.59;;;16.39;74.08
77574;BME280;66710;48.868;9.080;2023-10-13T01:55:42;98033.34;;;16.28;75.16
77574;BME280;66710;48.868;9.080;2023-10-13T01:58:11;98025.94;;;16.15;76.42
77574;BME280;66710;48.868;9.080;2023-10-13T02:00:47;98023.72;;;16.03;77.72
77574;BME280;66710;48.868;9.080;2023-10-13T02:03:13;98024.53;;;15.90;77.98
77574;BME280;66710;48.868;9.080;2023-10-13T02:05:46;98020.91;;;15.81;79.23
77574;BME280;66710;48.868;9.080;2023-10-13T02:08:19;98023.13;;;15.79;78.61
77574;BME280;66710;48.868;9.080;2023-10-13T02:10:55;98024.03;;;15.88;77.25
77574;BME280;66710;48.868;9.080;2023-10-13T02:13:22;98013.03;;;16.02;75.32
77574;BME280;66710;48.868;9.080;2023-10-13T02:15:49;98005.59;;;16.02;75.11
77574;BME280;66710;48.868;9.080;2023-10-13T02:18:17;98000.94;;;16.03;74.75
77574;BME280;66710;48.868;9.080;2023-10-13T02:20:51;98006.84;;;15.96;75.96
77574;BME280;66710;48.868;9.080;2023-10-13T02:23:23;98002.91;;;15.88;76.18
77574;BME280;66710;48.868;9.080;2023-10-13T02:25:49;98002.06;;;15.88;75.65
77574;BME280;66710;48.868;9.080;2023-10-13T02:28:18;97989.75;;;15.99;74.47
77574;BME280;66710;48.868;9.080;2023-10-13T02:30:53;97996.03;;;16.00;74.48
77574;BME280;66710;48.868;9.080;2023-10-13T02:33:18;97990.56;;;16.00;73.88
77574;BME280;66710;48.868;9.080;2023-10-13T02:35:47;97991.03;;;16.16;72.66
77574;BME280;66710;48.868;9.080;2023-10-13T02:38:19;97983.59;;;16.16;72.33
77574;BME280;66710;48.868;9.080;2023-10-13T02:40:52;97978.91;;;16.17;72.11
77574;BME280;66710;48.868;9.080;2023-10-13T02:43:19;97978.19;;;16.11;72.29
77574;BME280;66710;48.868;9.080;2023-10-13T02:45:53;97983.97;;;16.23;71.73
77574;BME280;66710;48.868;9.080;2023-10-13T02:48:25;97980.03;;;16.16;71.91
77574;BME280;66710;48.868;9.080;2023-10-13T02:50:59;97978.53;;;16.09;72.31
77574;BME280;66710;48.868;9.080;2023-10-13T02:53:31;97972.63;;;16.02;72.91
77574;BME280;66710;48.868;9.080;2023-10-13T02:55:56;97971.91;;;15.97;72.88
77574;BME280;66710;48.868;9.080;2023-10-13T02:58:29;97974.97;;;15.95;72.96
77574;BME280;66710;48.868;9.080;2023-10-13T03:01:05;97966.13;;;15.98;72.41
77574;BME280;66710;48.868;9.080;2023-10-13T03:03:35;97965.41;;;16.06;71.69
77574;BME280;66710;48.868;9.080;2023-10-13T03:06:00;97956.72;;;16.13;71.25
77574;BME280;66710;48.868;9.080;2023-10-13T03:08:25;97968.41;;;16.19;70.55
77574;BME280;66710;48.868;9.080;2023-10-13T03:10:52;97964.03;;;16.18;70.41
77574;BME280;66710;48.868;9.080;2023-10-13T03:13:19;97959.16;;;16.15;70.50
77574;BME280;66710;48.868;9.080;2023-10-13T03:15:44;97965.38;;;16.20;70.23
77574;BME280;66710;48.868;9.080;2023-10-13T03:18:12;97960.81;;;16.02;71.46
77574;BME280;66710;48.868;9.080;2023-10-13T03:20:43;97955.75;;;15.95;71.62
77574;BME280;66710;48.868;9.080;2023-10-13T03:23:08;97955.34;;;15.88;71.90
77574;BME280;66710;48.868;9.080;2023-10-13T03:25:34;97949.06;;;15.87;71.90
77574;BME280;66710;48.868;9.080;2023-10-13T03:28:08;97946.81;;;15.89;71.71
77574;BME280;66710;48.868;9.080;2023-10-13T03:30:36;97948.75;;;15.89;71.86
77574;BME280;66710;48.868;9.080;2023-10-13T03:33:07;97954.75;;;15.91;71.39
77574;BME280;66710;48.868;9.080;2023-10-13T03:35:40;97943.72;;;16.05;70.42
77574;BME280;66710;48.868;9.080;2023-10-13T03:38:08;97950.25;;;15.95;70.82
77574;BME280;66710;48.868;9.080;2023-10-13T03:40:42;97951.00;;;15.87;70.86
77574;BME280;66710;48.868;9.080;2023-10-13T03:43:13;97951.59;;;15.84;71.38
77574;BME280;66710;48.868;9.080;2023-10-13T03:45:40;97946.59;;;15.72;72.06
77574;BME280;66710;48.868;9.080;2023-10-13T03:48:10;97947.09;;;15.74;71.82
77574;BME280;66710;48.868;9.080;2023-10-13T03:50:51;97945.91;;;15.66;72.29
77574;BME280;66710;48.868;9.080;2023-10-13T03:53:31;97946.22;;;15.65;72.26
77574;BME280;66710;48.868;9.080;2023-10-13T03:56:06;97947.84;;;15.66;72.28
77574;BME280;66710;48.868;9.080;2023-10-13T03:58:40;97952.31;;;15.62;72.50
77574;BME280;66710;48.868;9.080;2023-10-13T04:01:13;97951.00;;;15.59;72.76
77574;BME280;66710;48.868;9.080;2023-10-13T04:03:41;97953.44;;;15.61;72.51
77574;BME280;66710;48.868;9.080;2023-10-13T04:06:25;97947.75;;;15.57;72.77
77574;BME280;66710;48.868;9.080;2023-10-13T04:09:09;97944.91;;;15.62;72.33
77574;BME280;66710;48.868;9.080;2023-10-13T04:11:52;97945.31;;;15.55;72.48
77574;BME280;66710;48.868;9.080;2023-10-13T04:14:40;97957.50;;;15.49;72.62
77574;BME280;66710;48.868;9.080;2023-10-13T04:17:41;97949.38;;;15.58;72.25
77574;BME280;66710;48.868;9.080;2023-10-13T04:20:09;97947.06;;;15.38;73.32
77574;BME280;66710;48.868;9.080;2023-10-13T04:22:36;97947.06;;;15.38;73.82
77574;BME280;66710;48.868;9.080;2023-10-13T04:25:24;97947.34;;;15.50;73.58
77574;BME280;66710;48.868;9.080;2023-10-13T04:28:15;97943.91;;;15.44;73.46
77574;BME280;66710;48.868;9.080;2023-10-13T04:30:50;97939.72;;;15.33;73.72
77574;BME280;66710;48.868;9.080;2023-10-13T04:33:28;97935.88;;;15.34;74.14
77574;BME280;66710;48.868;9.080;2023-10-13T04:36:10;97932.94;;;15.30;74.15
77574;BME280;66710;48.868;9.080;2023-10-13T04:38:50;97932.81;;;15.22;74.39
77574;BME280;66710;48.868;9.080;2023-10-13T04:41:29;97932.00;;;15.21;74.17
77574;BME280;66710;48.868;9.080;2023-10-13T04:44:12;97927.75;;;15.29;73.97
77574;BME280;66710;48.868;9.080;2023-10-13T04:47:00;97920.09;;;15.26;73.97
77574;BME280;66710;48.868;9.080;2023-10-13T04:49:27;97921.75;;;15.27;74.05
77574;BME280;66710;48.868;9.080;2023-10-13T04:52:08;97919.31;;;15.39;73.23
77574;BME280;66710;48.868;9.080;2023-10-13T04:54:33;97917.97;;;15.36;73.51
77574;BME280;66710;48.868;9.080;2023-10-13T04:57:10;97915.53;;;15.35;73.48
77574;BME280;66710;48.868;9.080;2023-10-13T05:00:00;97914.50;;;15.31;73.73
77574;BME280;66710;48.868;9.080;2023-10-13T05:02:47;97913.63;;;15.22;74.81
77574;BME280;66710;48.868;9.080;2023-10-13T05:05:30;97903.13;;;15.24;74.34
77574;BME280;66710;48.868;9.080;2023-10-13T05:07:55;97907.19;;;15.26;74.18
77574;BME280;66710;48.868;9.080;2023-10-13T05:10:39;97908.94;;;15.22;74.52
77574;BME280;66710;48.868;9.080;2023-10-13T05:13:23;97905.38;;;15.22;74.53
77574;BME280;66710;48.868;9.080;2023-10-13T05:16:07;97901.28;;;15.19;74.79
77574;BME280;66710;48.868;9.080;2023-10-13T05:18:51;97900.50;;;15.19;74.76
77574;BME280;66710;48.868;9.080;2023-10-13T05:21:35;97897.53;;;15.15;75.32
77574;BME280;66710;48.868;9.080;2023-10-13T05:24:19;97895.19;;;15.22;74.39
77574;BME280;66710;48.868;9.080;2023-10-13T05:27:03;97890.31;;;15.19;74.55
77574;BME280;66710;48.868;9.080;2023-10-13T05:29:47;97884.13;;;15.27;74.09
77574;BME280;66710;48.868;9.080;2023-10-13T05:32:32;97887.56;;;15.33;73.69
77574;BME280;66710;48.868;9.080;2023-10-13T05:35:17;97888.78;;;15.41;73.17
77574;BME280;66710;48.868;9.080;2023-10-13T05:38:01;97887.97;;;15.40;72.90
77574;BME280;66710;48.868;9.080;2023-10-13T05:40:56;97890.91;;;15.44;72.72
77574;BME280;66710;48.868;9.080;2023-10-13T05:43:40;97895.69;;;15.52;72.32
77574;BME280;66710;48.868;9.080;2023-10-13T05:46:24;97884.28;;;15.59;71.49
77574;BME280;66710;48.868;9.080;2023-10-13T05:48:53;97886.28;;;15.67;70.86
77574;BME280;66710;48.868;9.080;2023-10-13T05:51:25;97894.53;;;15.67;71.07
77574;BME280;66710;48.868;9.080;2023-10-13T05:54:10;97884.25;;;15.72;70.63
77574;BME280;66710;48.868;9.080;2023-10-13T05:56:58;97895.47;;;15.76;70.70
77574;BME280;66710;48.868;9.080;2023-10-13T05:59:42;97903.59;;;15.81;70.36
77574;BME280;66710;48.868;9.080;2023-10-13T06:02:26;97907.03;;;15.87;70.04
77574;BME280;66710;48.868;9.080;2023-10-13T06:05:12;97897.44;;;15.98;68.98
77574;BME280;66710;48.868;9.080;2023-10-13T06:07:57;97890.19;;;16.02;69.04
77574;BME280;66710;48.868;9.080;2023-10-13T06:10:41;97902.88;;;16.12;69.15
77574;BME280;66710;48.868;9.080;2023-10-13T06:13:25;97911.75;;;16.32;68.11
77574;BME280;66710;48.868;9.080;2023-10-13T06:16:11;97903.13;;;16.47;67.14
77574;BME280;66710;48.868;9.080;2023-10-13T06:18:55;97906.66;;;16.70;66.17
77574;BME280;66710;48.868;9.080;2023-10-13T06:21:39;97897.53;;;16.83;65.43
77574;BME280;66710;48.868;9.080;2023-10-13T06:24:23;97896.19;;;16.81;65.38
77574;BME280;66710;48.868;9.080;2023-10-13T06:27:07;97903.91;;;16.93;65.13
77574;BME280;66710;48.868;9.080;2023-10-13T06:29:51;97906.69;;;17.01;64.29
77574;BME280;66710;48.868;9.080;2023-10-13T06:32:19;97897.16;;;17.08;64.17
77574;BME280;66710;48.868;9.080;2023-10-13T06:34:44;97897.94;;;17.08;64.05
77574;BME280;66710;48.868;9.080;2023-10-13T06:37:16;97897.19;;;17.16;63.75
77574;BME280;66710;48.868;9.080;2023-10-13T06:39:49;97897.03;;;17.21;63.25
77574;BME280;66710;48.868;9.080;2023-10-13T06:42:14;97893.00;;;17.28;63.40
77574;BME280;66710;48.868;9.080;2023-10-13T06:44:41;97904.38;;;17.35;62.32
77574;BME280;66710;48.868;9.080;2023-10-13T06:47:10;97909.38;;;17.33;62.55
77574;BME280;66710;48.868;9.080;2023-10-13T06:49:36;97895.44;;;17.29;63.10
77574;BME280;66710;48.868;9.080;2023-10-13T06:52:04;97901.59;;;17.26;63.27
77574;BME280;66710;48.868;9.080;2023-10-13T06:54:32;97897.84;;;17.22;63.86
77574;BME280;66710;48.868;9.080;2023-10-13T06:57:00;97898.88;;;17.43;62.85
77574;BME280;66710;48.868;9.080;2023-10-13T06:59:25;97903.50;;;17.83;61.37
77574;BME280;66710;48.868;9.080;2023-10-13T07:01:58;97904.34;;;18.01;60.48
77574;BME280;66710;48.868;9.080;2023-10-13T07:04:28;97896.88;;;18.19;60.53
77574;BME280;66710;48.868;9.080;2023-10-13T07:06:53;97907.91;;;18.28;59.74
77574;BME280;66710;48.868;9.080;2023-10-13T07:09:20;97905.94;;;18.37;59.49
77574;BME280;66710;48.868;9.080;2023-10-13T07:12:04;97904.81;;;18.47;59.01
77574;BME280;66710;48.868;9.080;2023-10-13T07:14:32;97905.91;;;18.63;58.82
77574;BME280;66710;48.868;9.080;2023-10-13T07:17:06;97904.16;;;18.50;58.72
77574;BME280;66710;48.868;9.080;2023-10-13T07:19:33;97901.38;;;18.59;58.87
77574;BME280;66710;48.868;9.080;2023-10-13T07:22:00;97895.13;;;18.97;57.82
77574;BME280;66710;48.868;9.080;2023-10-13T07:24:44;97900.56;;;19.14;56.86
77574;BME280;66710;48.868;9.080;2023-10-13T07:27:10;97901.63;;;19.30;57.19
77574;BME280;66710;48.868;9.080;2023-10-13T07:29:36;97909.56;;;19.41;55.84
77574;BME280;66710;48.868;9.080;2023-10-13T07:32:02;97898.97;;;19.43;55.84
77574;BME280;66710;48.868;9.080;2023-10-13T07:34:38;97898.00;;;19.68;55.53
77574;BME280;66710;48.868;9.080;2023-10-13T07:37:04;97897.66;;;19.49;56.10
77574;BME280;66710;48.868;9.080;2023-10-13T07:39:33;97888.59;;;19.69;55.47
77574;BME280;66710;48.868;9.080;2023-10-13T07:42:04;97887.09;;;19.72;55.50
77574;BME280;66710;48.868;9.080;2023-10-13T07:44:31;97893.34;;;19.60;55.01
77574;BME280;66710;48.868;9.080;2023-10-13T07:47:01;97887.41;;;20.00;55.22
77574;BME280;66710;48.868;9.080;2023-10-13T07:49:32;97890.94;;;20.43;54.24
77574;BME280;66710;48.868;9.080;2023-10-13T07:52:01;97897.84;;;20.37;53.73
77574;BME280;66710;48.868;9.080;2023-10-13T07:54:41;97888.88;;;20.52;53.40
77574;BME280;66710;48.868;9.080;2023-10-13T07:57:08;97891.53;;;20.49;53.40
77574;BME280;66710;48.868;9.080;2023-10-13T07:59:59;97880.16;;;21.08;53.10
77574;BME280;66710;48.868;9.080;2023-10-13T08:02:42;97884.31;;;21.02;52.48
77574;BME280;66710;48.868;9.080;2023-10-13T08:05:15;97884.44;;;21.43;51.25
77574;BME280;66710;48.868;9.080;2023-10-13T08:07:51;97875.75;;;21.69;49.51
77574;BME280;66710;48.868;9.080;2023-10-13T08:10:17;97871.13;;;21.73;47.52
77574;BME280;66710;48.868;9.080;2023-10-13T08:12:43;97873.31;;;21.92;48.01
77574;BME280;66710;48.868;9.080;2023-10-13T08:15:09;97866.19;;;22.07;46.29
77574;BME280;66710;48.868;9.080;2023-10-13T08:17:46;97872.28;;;22.12;46.72
77574;BME280;66710;48.868;9.080;2023-10-13T08:20:11;97864.63;;;21.81;46.80
77574;BME280;66710;48.868;9.080;2023-10-13T08:22:37;97876.34;;;22.27;45.65
77574;BME280;66710;48.868;9.080;2023-10-13T08:25:04;97869.00;;;22.35;45.31
77574;BME280;66710;48.868;9.080;2023-10-13T08:27:48;97867.00;;;22.64;44.91
77574;BME280;66710;48.868;9.080;2023-10-13T08:30:14;97862.28;;;22.96;43.33
77574;BME280;66710;48.868;9.080;2023-10-13T08:32:53;97858.38;;;23.13;43.12
77574;BME280;66710;48.868;9.080;2023-10-13T08:35:24;97851.72;;;23.34;43.00
77574;BME280;66710;48.868;9.080;2023-10-13T08:38:00;97849.13;;;22.93;42.66
77574;BME280;66710;48.868;9.080;2023-10-13T08:40:29;97838.38;;;23.07;41.96
77574;BME280;66710;48.868;9.080;2023-10-13T08:43:13;97852.41;;;22.99;42.31
77574;BME280;66710;48.868;9.080;2023-10-13T08:45:40;97857.84;;;23.59;41.08
77574;BME280;66710;48.868;9.080;2023-10-13T08:48:10;97858.22;;;23.93;40.90
77574;BME280;66710;48.868;9.080;2023-10-13T08:50:43;97852.44;;;23.82;41.11
77574;BME280;66710;48.868;9.080;2023-10-13T08:53:27;97852.69;;;23.41;40.86
77574;BME280;66710;48.868;9.080;2023-10-13T08:58:46;97849.16;;;23.60;41.43
77574;BME280;66710;48.868;9.080;2023-10-13T09:01:24;97846.69;;;23.75;39.87
77574;BME280;66710;48.868;9.080;2023-10-13T09:04:10;97844.56;;;23.52;40.71
77574;BME280;66710;48.868;9.080;2023-10-13T09:07:03;97842.63;;;23.53;39.37
77574;BME280;66710;48.868;9.080;2023-10-13T09:09:44;97833.72;;;24.18;38.70
77574;BME280;66710;48.868;9.080;2023-10-13T09:12:30;97834.56;;;24.84;37.93
77574;BME280;66710;48.868;9.080;2023-10-13T09:14:59;97840.41;;;24.36;37.84
77574;BME280;66710;48.868;9.080;2023-10-13T09:17:49;97827.00;;;24.42;38.11
77574;BME280;66710;48.868;9.080;2023-10-13T09:20:38;97835.78;;;24.44;38.37
77574;BME280;66710;48.868;9.080;2023-10-13T09:23:10;97832.00;;;24.13;38.27
77574;BME280;66710;48.868;9.080;2023-10-13T09:25:39;97831.50;;;24.08;38.28
77574;BME280;66710;48.868;9.080;2023-10-13T09:28:18;97837.88;;;24.70;36.57
77574;BME280;66710;48.868;9.080;2023-10-13T09:30:51;97818.19;;;24.59;37.82
77574;BME280;66710;48.868;9.080;2023-10-13T09:33:25;97829.03;;;24.65;36.85
77574;BME280;66710;48.868;9.080;2023-10-13T09:36:15;97811.91;;;25.35;37.06
77574;BME280;66710;48.868;9.080;2023-10-13T09:38:42;97802.91;;;24.96;36.33
77574;BME280;66710;48.868;9.080;2023-10-13T09:41:28;97810.66;;;24.83;36.89
77574;BME280;66710;48.868;9.080;2023-10-13T09:43:57;97802.78;;;24.66;36.76
77574;BME280;66710;48.868;9.080;2023-10-13T09:46:26;97804.50;;;24.97;36.73
77574;BME280;66710;48.868;9.080;2023-10-13T09:48:58;97807.84;;;25.29;35.51
77574;BME280;66710;48.868;9.080;2023-10-13T09:51:33;97793.63;;;25.68;34.57
77574;BME280;66710;48.868;9.080;2023-10-13T09:54:13;97802.47;;;25.74;35.02
77574;BME280;66710;48.868;9.080;2023-10-13T09:56:55;97799.06;;;26.18;34.57
77574;BME280;66710;48.868;9.080;2023-10-13T09:59:36;97795.38;;;26.48;34.08
77574;BME280;66710;48.868;9.080;2023-10-13T10:02:08;97799.59;;;26.31;34.61
77574;BME280;66710;48.868;9.080;2023-10-13T10:04:35;97786.13;;;26.78;33.65
77574;BME280;66710;48.868;9.080;2023-10-13T10:07:29;97793.84;;;26.54;34.02
77574;BME280;66710;48.868;9.080;2023-10-13T10:10:01;97774.59;;;26.83;33.51
77574;BME280;66710;48.868;9.080;2023-10-13T10:12:46;97800.66;;;26.57;33.25
77574;BME280;66710;48.868;9.080;2023-10-13T10:15:28;97774.59;;;26.08;33.48
77574;BME280;66710;48.868;9.080;2023-10-13T10:17:59;97783.53;;;26.58;33.91
77574;BME280;66710;48.868;9.080;2023-10-13T10:20:33;97789.75;;;26.44;34.08
77574;BME280;66710;48.868;9.080;2023-10-13T10:23:07;97781.03;;;25.51;35.03
77574;BME280;66710;48.868;9.080;2023-10-13T10:25:47;97784.09;;;25.16;35.83
77574;BME280;66710;48.868;9.080;2023-10-13T10:28:12;97777.44;;;25.24;36.18
77574;BME280;66710;48.868;9.080;2023-10-13T10:30:41;97773.25;;;25.11;36.02
77574;BME280;66710;48.868;9.080;2023-10-13T10:33:08;97768.25;;;25.77;35.67
77574;BME280;66710;48.868;9.080;2023-10-13T10:35:45;97768.81;;;26.27;35.16
77574;BME280;66710;48.868;9.080;2023-10-13T10:38:17;97771.75;;;27.31;34.45
77574;BME280;66710;48.868;9.080;2023-10-13T10:41:00;97764.13;;;27.28;33.38
77574;BME280;66710;48.868;9.080;2023-10-13T10:46:11;97750.06;;;26.65;34.72
77574;BME280;66710;48.868;9.080;2023-10-13T10:48:37;97753.13;;;26.53;34.46
77574;BME280;66710;48.868;9.080;2023-10-13T10:51:12;97742.66;;;26.88;33.95
77574;BME280;66710;48.868;9.080;2023-10-13T10:53:47;97737.97;;;27.02;33.58
77574;BME280;66710;48.868;9.080;2023-10-13T10:56:15;97737.72;;;27.26;33.27
77574;BME280;66710;48.868;9.080;2023-10-13T10:58:55;97737.31;;;26.68;33.00
77574;BME280;66710;48.868;9.080;2023-10-13T11:01:25;97745.00;;;27.34;33.02
77574;BME280;66710;48.868;9.080;2023-10-13T11:04:00;97739.88;;;27.47;32.38
77574;BME280;66710;48.868;9.080;2023-10-13T11:06:48;97737.31;;;28.08;31.78
77574;BME280;66710;48.868;9.080;2023-10-13T11:09:14;97736.41;;;27.75;31.73
77574;BME280;66710;48.868;9.080;2023-10-13T11:11:53;97730.13;;;28.03;32.03
77574;BME280;66710;48.868;9.080;2023-10-13T11:14:29;97725.06;;;28.55;31.58
77574;BME280;66710;48.868;9.080;2023-10-13T11:16:56;97721.78;;;28.32;30.73
77574;BME280;66710;48.868;9.080;2023-10-13T11:19:42;97715.38;;;28.49;30.71
77574;BME280;66710;48.868;9.080;2023-10-13T11:22:12;97703.31;;;29.42;30.22
77574;BME280;66710;48.868;9.080;2023-10-13T11:24:56;97711.03;;;28.59;30.02
77574;BME280;66710;48.868;9.080;2023-10-13T11:27:30;97697.72;;;28.20;31.10
77574;BME280;66710;48.868;9.080;2023-10-13T11:30:10;97693.34;;;28.51;29.88
77574;BME280;66710;48.868;9.080;2023-10-13T11:32:39;97695.78;;;28.60;30.53
77574;BME280;66710;48.868;9.080;2023-10-13T11:35:08;97689.00;;;28.68;29.92
77574;BME280;66710;48.868;9.080;2023-10-13T11:37:45;97695.34;;;28.11;28.29
77574;BME280;66710;48.868;9.080;2023-10-13T11:40:19;97688.16;;;28.50;27.83
77574;BME280;66710;48.868;9.080;2023-10-13T11:43:04;97685.38;;;28.57;27.70
77574;BME280;66710;48.868;9.080;2023-10-13T11:45:30;97688.16;;;28.93;26.94
77574;BME280;66710;48.868;9.080;2023-10-13T11:48:00;97684.56;;;28.78;26.90
77574;BME280;66710;48.868;9.080;2023-10-13T11:50:26;97696.19;;;28.87;26.88
77574;BME280;66710;48.868;9.080;2023-10-13T11:52:58;97676.06;;;29.32;26.48
77574;BME280;66710;48.868;9.080;2023-10-13T11:55:23;97674.13;;;29.04;26.12
77574;BME280;66710;48.868;9.080;2023-10-13T11:57:49;97660.84;;;29.11;26.55
77574;BME280;66710;48.868;9.080;2023-10-13T12:00:15;97671.97;;;29.55;26.57
77574;BME280;66710;48.868;9.080;2023-10-13T12:02:59;97660.06;;;29.15;26.14
77574;BME280;66710;48.868;9.080;2023-10-13T12:05:43;97664.72;;;29.57;26.00
77574;BME280;66710;48.868;9.080;2023-10-13T12:08:24;97660.88;;;29.01;26.38
77574;BME280;66710;48.868;9.080;2023-10-13T12:10:58;97652.94;;;29.91;25.58
77574;BME280;66710;48.868;9.080;2023-10-13T12:13:45;97647.69;;;30.00;26.22
77574;BME280;66710;48.868;9.080;2023-10-13T12:16:11;97636.31;;;29.48;25.91
77574;BME280;66710;48.868;9.080;2023-10-13T12:18:37;97640.59;;;29.78;26.33
77574;BME280;66710;48.868;9.080;2023-10-13T12:21:08;97638.03;;;29.09;25.53
77574;BME280;66710;48.868;9.080;2023-10-13T12:23:34;97638.38;;;29.37;25.53
77574;BME280;66710;48.868;9.080;2023-10-13T12:26:02;97628.06;;;28.87;26.11
77574;BME280;66710;48.868;9.080;2023-10-13T12:28:31;97619.66;;;28.76;26.22
77574;BME280;66710;48.868;9.080;2023-10-13T12:31:05;97624.53;;;29.75;25.82
77574;BME280;66710;48.868;9.080;2023-10-13T12:33:33;97613.59;;;29.91;25.86
77574;BME280;66710;48.868;9.080;2023-10-13T12:36:07;97602.34;;;29.95;26.18
77574;BME280;66710;48.868;9.080;2023-10-13T12:38:40;97620.38;;;30.01;25.77
77574;BME280;66710;48.868;9.080;2023-10-13T12:41:13;97611.91;;;29.30;25.42
77574;BME280;66710;48.868;9.080;2023-10-13T12:43:57;97620.56;;;29.76;24.78
77574;BME280;66710;48.868;9.080;2023-10-13T12:46:41;97597.31;;;29.64;25.23
77574;BME280;66710;48.868;9.080;2023-10-13T12:49:25;97595.34;;;30.17;24.49
77574;BME280;66710;48.868;9.080;2023-10-13T12:52:10;97600.75;;;29.94;25.02
77574;BME280;66710;48.868;9.080;2023-10-13T12:54:45;97592.47;;;30.73;24.56
77574;BME280;66710;48.868;9.080;2023-10-13T12:57:23;97592.69;;;30.52;23.93
77574;BME280;66710;48.868;9.080;2023-10-13T12:59:49;97583.47;;;30.48;24.44
77574;BME280;66710;48.868;9.080;2023-10-13T13:02:14;97584.91;;;30.21;24.44
77574;BME280;66710;48.868;9.080;2023-10-13T13:04:41;97574.34;;;30.33;24.15
77574;BME280;66710;48.868;9.080;2023-10-13T13:07:09;97583.31;;;30.17;24.60
77574;BME280;66710;48.868;9.080;2023-10-13T13:09:39;97579.03;;;30.01;24.15
77574;BME280;66710;48.868;9.080;2023-10-13T13:12:04;97560.44;;;30.18;24.94
77574;BME280;66710;48.868;9.080;2023-10-13T13:14:31;97555.16;;;30.24;24.77
77574;BME280;66710;48.868;9.080;2023-10-13T13:17:00;97563.47;;;29.86;24.89
77574;BME280;66710;48.868;9.080;2023-10-13T13:19:35;97558.78;;;30.66;23.85
77574;BME280;66710;48.868;9.080;2023-10-13T13:22:04;97558.44;;;30.15;24.37
77574;BME280;66710;48.868;9.080;2023-10-13T13:24:31;97559.72;;;30.03;24.97
77574;BME280;66710;48.868;9.080;2023-10-13T13:26:57;97553.69;;;30.05;24.09
77574;BME280;66710;48.868;9.080;2023-10-13T13:29:27;97563.25;;;30.18;23.73
77574;BME280;66710;48.868;9.080;2023-10-13T13:31:52;97547.38;;;29.94;24.43
77574;BME280;66710;48.868;9.080;2023-10-13T13:34:18;97532.38;;;30.11;23.96
77574;BME280;66710;48.868;9.080;2023-10-13T13:36:45;97539.19;;;30.14;24.17
77574;BME280;66710;48.868;9.080;2023-10-13T13:39:14;97525.91;;;29.62;24.26